Time;durP1;ratioP1;P1;durP2;ratioP2;P2;SDS_P1;SDS_P2;PMS_P1;PMS_P2;Temp;Humidity;BMP_temperature;BMP_pressure;BME280_temperature;BME280_humidity;BME280_pressure;Samples;Min_cycle;Max_cycle;Signal;HPM_P1;HPM_P2
2022/06/29 00:00:17;;;;;;;9.50;2.85;;;22.90;99.90;;;;;;5014110;28;20052;-78
2022/06/29 00:02:43;;;;;;;7.20;2.25;;;23.00;99.90;;;;;;5031515;28;20029;-79
2022/06/29 00:05:12;;;;;;;11.77;2.97;;;23.00;99.90;;;;;;5013866;28;20037;-78
2022/06/29 00:07:39;;;;;;;5.97;2.47;;;23.10;99.90;;;;;;5013919;28;20033;-78
2022/06/29 00:10:06;;;;;;;5.85;2.85;;;23.10;99.90;;;;;;5031404;28;20491;-78
2022/06/29 00:12:32;;;;;;;8.07;3.15;;;23.20;99.90;;;;;;5031356;28;20031;-78
2022/06/29 00:14:58;;;;;;;5.95;2.28;;;23.20;99.90;;;;;;5036126;28;20025;-78
2022/06/29 00:17:24;;;;;;;7.65;2.60;;;23.20;99.90;;;;;;5020094;28;20120;-78
2022/06/29 00:19:50;;;;;;;10.32;2.60;;;23.30;99.90;;;;;;5020164;28;20138;-78
2022/06/29 00:22:16;;;;;;;5.72;2.17;;;23.30;99.90;;;;;;5038173;28;20029;-78
2022/06/29 00:24:42;;;;;;;5.60;1.95;;;23.40;99.90;;;;;;5037949;28;20453;-78
2022/06/29 00:27:08;;;;;;;7.72;2.40;;;23.40;99.90;;;;;;5037832;28;20022;-77
2022/06/29 00:29:34;;;;;;;9.35;2.70;;;23.50;99.90;;;;;;5020055;28;20499;-78
2022/06/29 00:32:00;;;;;;;5.18;2.13;;;23.60;99.90;;;;;;5037815;28;20076;-77
2022/06/29 00:34:26;;;;;;;5.15;1.80;;;23.60;99.90;;;;;;5037731;28;20442;-77
2022/06/29 00:36:52;;;;;;;9.77;2.33;;;23.60;99.90;;;;;;5010234;28;20042;-77
2022/06/29 00:39:18;;;;;;;8.27;3.35;;;23.60;99.90;;;;;;5017967;28;20535;-77
2022/06/29 00:41:45;;;;;;;3.53;2.00;;;23.70;99.90;;;;;;5017942;28;20109;-77
2022/06/29 00:44:21;;;;;;;7.03;2.35;;;23.70;99.90;;;;;;5018028;28;20037;-77
2022/06/29 00:46:51;;;;;;;7.75;1.60;;;23.80;99.90;;;;;;5000239;28;20423;-77
2022/06/29 00:49:20;;;;;;;7.70;2.20;;;23.80;99.90;;;;;;5000275;28;20026;-77
2022/06/29 00:51:51;;;;;;;8.02;1.83;;;23.90;99.90;;;;;;5014531;28;20120;-77
2022/06/29 00:54:25;;;;;;;7.45;2.00;;;24.00;99.90;;;;;;5017918;28;20101;-77
2022/06/29 00:56:51;;;;;;;4.35;2.25;;;24.10;99.90;;;;;;5017816;28;20538;-77
2022/06/29 00:59:24;;;;;;;14.85;2.50;;;24.10;99.90;;;;;;5000345;28;20022;-77
2022/06/29 01:01:50;;;;;;;8.93;2.83;;;24.10;99.90;;;;;;5000334;28;20029;-77
2022/06/29 01:04:17;;;;;;;8.77;2.28;;;24.10;99.90;;;;;;5000075;28;20037;-77
2022/06/29 01:06:43;;;;;;;10.70;2.92;;;24.10;99.90;;;;;;5017108;28;20506;-77
2022/06/29 01:09:09;;;;;;;7.70;2.50;;;24.10;99.90;;;;;;4998265;28;20033;-77
2022/06/29 01:11:35;;;;;;;5.95;1.90;;;24.10;99.90;;;;;;4980639;28;20400;-76
2022/06/29 01:14:01;;;;;;;12.18;2.55;;;24.10;99.90;;;;;;4980358;28;20053;-77
2022/06/29 01:16:27;;;;;;;4.47;2.08;;;24.10;99.90;;;;;;4998146;28;20027;-77
2022/06/29 01:18:53;;;;;;;5.80;2.15;;;24.20;99.90;;;;;;4998215;28;20022;-77
2022/06/29 01:21:20;;;;;;;11.35;2.63;;;24.20;99.90;;;;;;4980490;28;20420;-76
2022/06/29 01:23:46;;;;;;;6.50;2.20;;;24.30;99.90;;;;;;4997983;28;20374;-77
2022/06/29 01:26:12;;;;;;;5.60;2.22;;;24.30;99.90;;;;;;4995128;28;20076;-78
2022/06/29 01:28:44;;;;;;;4.30;1.90;;;24.30;99.90;;;;;;4977267;28;20451;-77
2022/06/29 01:31:17;;;;;;;7.85;2.60;;;24.30;99.90;;;;;;4995027;28;20412;-77
2022/06/29 01:33:44;;;;;;;4.88;2.40;;;24.30;99.90;;;;;;4993538;28;20448;-78
2022/06/29 01:36:11;;;;;;;4.57;2.00;;;24.40;99.90;;;;;;4994828;28;20044;-77
2022/06/29 01:38:38;;;;;;;5.00;2.78;;;24.30;99.90;;;;;;5012610;28;20025;-76
2022/06/29 01:41:06;;;;;;;7.40;2.50;;;24.30;99.90;;;;;;5034193;28;20065;-76
2022/06/29 01:43:32;;;;;;;9.13;2.05;;;24.30;99.90;;;;;;5033892;28;20035;-77
2022/06/29 01:45:58;;;;;;;7.15;2.20;;;24.30;99.90;;;;;;5033969;28;20021;-77
2022/06/29 01:48:24;;;;;;;9.98;2.03;;;24.30;99.90;;;;;;5016576;28;20030;-77
2022/06/29 01:50:50;;;;;;;8.30;2.22;;;24.30;99.90;;;;;;5033133;28;20026;-77
2022/06/29 01:53:16;;;;;;;5.35;2.00;;;24.30;99.90;;;;;;5014551;28;20022;-77
2022/06/29 01:55:44;;;;;;;5.78;1.98;;;24.30;99.90;;;;;;5033766;28;20032;-76
2022/06/29 01:58:10;;;;;;;5.25;2.30;;;24.30;99.90;;;;;;5015348;28;20487;-77
2022/06/29 02:00:36;;;;;;;6.32;2.25;;;24.30;99.90;;;;;;5035042;28;20448;-77
2022/06/29 02:03:01;;;;;;;6.47;1.63;;;24.30;99.90;;;;;;5034931;28;20061;-77
2022/06/29 02:05:27;;;;;;;5.25;2.10;;;24.40;99.90;;;;;;5034301;28;20122;-76
2022/06/29 02:07:53;;;;;;;9.07;2.03;;;24.40;99.90;;;;;;5034580;28;20092;-76
2022/06/29 02:10:19;;;;;;;5.68;2.05;;;24.40;99.80;;;;;;5016493;28;20026;-77
2022/06/29 02:12:44;;;;;;;4.97;1.70;;;24.40;99.70;;;;;;5034501;28;20029;-77
2022/06/29 02:15:10;;;;;;;6.38;1.95;;;24.40;99.40;;;;;;5034329;28;20471;-76
2022/06/29 02:17:36;;;;;;;6.70;2.17;;;24.50;99.40;;;;;;5034531;28;20025;-76
2022/06/29 02:20:03;;;;;;;5.47;1.88;;;24.50;99.40;;;;;;5033653;28;20502;-77
2022/06/29 02:22:29;;;;;;;8.25;2.13;;;24.50;99.10;;;;;;5016897;28;20079;-77
2022/06/29 02:24:54;;;;;;;17.50;3.22;;;24.50;99.00;;;;;;5016140;28;20545;-77
2022/06/29 02:27:20;;;;;;;7.00;2.25;;;24.50;99.00;;;;;;5034396;28;20033;-77
2022/06/29 02:29:46;;;;;;;7.57;2.20;;;24.50;98.60;;;;;;5016394;28;20053;-76
2022/06/29 02:34:56;;;;;;;5.88;2.50;;;24.50;99.00;;;;;;5034021;28;20072;-76
2022/06/29 02:37:21;;;;;;;4.30;2.28;;;24.50;99.50;;;;;;5016085;28;20468;-76
2022/06/29 02:39:47;;;;;;;7.00;2.03;;;24.40;99.90;;;;;;5014210;28;20369;-77
2022/06/29 02:42:14;;;;;;;6.20;2.53;;;24.40;99.90;;;;;;5013788;28;20029;-76
2022/06/29 02:44:41;;;;;;;4.47;2.30;;;24.30;99.90;;;;;;5014289;28;20018;-77
2022/06/29 02:47:08;;;;;;;7.20;2.28;;;24.30;99.90;;;;;;5014029;28;20053;-77
2022/06/29 02:49:34;;;;;;;8.43;3.15;;;24.20;99.90;;;;;;5014000;28;20037;-76
2022/06/29 02:52:00;;;;;;;11.20;2.55;;;24.10;99.90;;;;;;4996581;28;20057;-76
2022/06/29 02:54:26;;;;;;;5.93;2.53;;;24.10;99.90;;;;;;4996603;28;20045;-76
2022/06/29 02:56:55;;;;;;;7.32;2.47;;;24.00;99.90;;;;;;5014111;28;20108;-76
2022/06/29 02:59:22;;;;;;;5.35;2.42;;;24.00;99.90;;;;;;4996539;28;20026;-76
2022/06/29 03:01:47;;;;;;;8.43;2.78;;;23.90;99.90;;;;;;5013863;28;20037;-76
2022/06/29 03:04:13;;;;;;;3.95;2.03;;;23.90;99.90;;;;;;4996597;28;20411;-75
2022/06/29 03:06:39;;;;;;;5.57;2.10;;;23.80;99.90;;;;;;5014028;28;20384;-76
2022/06/29 03:09:05;;;;;;;2.28;2.05;;;23.70;99.90;;;;;;5014108;28;20022;-76
2022/06/29 03:11:31;;;;;;;7.18;2.65;;;23.70;99.90;;;;;;5013854;28;20026;-76
2022/06/29 03:13:57;;;;;;;7.45;2.33;;;23.70;99.90;;;;;;4996145;28;20046;-76
2022/06/29 03:16:23;;;;;;;15.63;2.90;;;23.60;99.90;;;;;;4996135;28;20033;-76
2022/06/29 03:18:50;;;;;;;2.63;2.10;;;23.60;99.90;;;;;;4996487;28;20026;-76
2022/06/29 03:21:16;;;;;;;8.52;1.95;;;23.60;99.90;;;;;;4996370;28;20391;-76
2022/06/29 03:23:42;;;;;;;8.25;2.70;;;23.70;99.90;;;;;;4996055;28;20075;-76
2022/06/29 03:26:08;;;;;;;4.32;2.22;;;23.70;99.90;;;;;;4996142;28;20037;-76
2022/06/29 03:28:34;;;;;;;9.25;2.85;;;23.70;99.90;;;;;;4995930;28;20038;-75
2022/06/29 03:31:00;;;;;;;5.45;2.47;;;23.70;99.90;;;;;;5013467;28;20104;-76
2022/06/29 03:33:26;;;;;;;10.13;2.38;;;23.70;99.90;;;;;;4995892;28;20029;-76
2022/06/29 03:35:51;;;;;;;6.55;2.30;;;23.70;99.90;;;;;;5013797;28;20025;-75
2022/06/29 03:38:17;;;;;;;5.43;2.17;;;23.70;99.90;;;;;;5013390;28;20460;-76
2022/06/29 03:40:43;;;;;;;3.13;2.35;;;23.80;99.90;;;;;;4995744;28;20120;-76
2022/06/29 03:43:08;;;;;;;6.15;2.47;;;23.90;99.90;;;;;;5013462;28;20053;-76
2022/06/29 03:45:34;;;;;;;7.90;2.25;;;24.00;99.90;;;;;;4995685;28;20137;-76
2022/06/29 03:48:00;;;;;;;7.90;2.55;;;24.00;99.90;;;;;;5013209;28;20523;-76
2022/06/29 03:50:26;;;;;;;14.27;3.70;;;24.00;99.90;;;;;;5013135;28;20121;-76
2022/06/29 03:52:52;;;;;;;11.50;2.90;;;24.00;99.90;;;;;;5013240;28;20061;-76
2022/06/29 03:55:17;;;;;;;8.32;3.05;;;23.90;99.90;;;;;;5013327;28;20014;-75
2022/06/29 03:57:43;;;;;;;11.45;3.08;;;23.80;99.90;;;;;;5012964;28;20105;-76
2022/06/29 04:00:11;;;;;;;14.55;2.85;;;23.80;99.90;;;;;;5013167;28;20037;-77
2022/06/29 04:02:37;;;;;;;9.07;2.85;;;23.70;99.90;;;;;;5012965;28;20026;-77
2022/06/29 04:05:04;;;;;;;6.75;3.08;;;23.70;99.90;;;;;;5013055;28;20109;-76
2022/06/29 04:07:31;;;;;;;8.63;3.03;;;23.60;99.90;;;;;;5006209;28;20030;-76
2022/06/29 04:09:59;;;;;;;10.23;3.08;;;23.60;99.90;;;;;;4975981;28;20365;-76
2022/06/29 04:12:29;;;;;;;9.35;3.47;;;23.60;99.90;;;;;;4993673;28;20473;-76
2022/06/29 04:14:55;;;;;;;6.30;3.53;;;23.50;99.90;;;;;;4993292;28;20476;-76
2022/06/29 04:17:21;;;;;;;8.93;2.38;;;23.50;99.90;;;;;;4975962;28;20022;-76
2022/06/29 04:19:47;;;;;;;5.35;2.35;;;23.40;99.90;;;;;;4976244;28;20040;-77
2022/06/29 04:22:13;;;;;;;5.05;2.78;;;23.40;99.90;;;;;;4993341;28;20054;-77
2022/06/29 04:24:38;;;;;;;4.57;2.78;;;23.30;99.90;;;;;;4975935;28;20031;-77
2022/06/29 04:27:04;;;;;;;9.40;1.80;;;23.30;99.90;;;;;;4975792;28;20045;-77
2022/06/29 04:29:30;;;;;;;4.65;1.90;;;23.20;99.90;;;;;;5003628;28;20420;-77
2022/06/29 04:31:56;;;;;;;6.45;2.70;;;23.20;99.90;;;;;;5013069;28;20068;-77
2022/06/29 04:34:21;;;;;;;8.02;3.33;;;23.20;99.90;;;;;;4994914;28;20030;-77
2022/06/29 04:36:47;;;;;;;4.82;2.20;;;23.30;99.90;;;;;;4995643;28;20037;-77
2022/06/29 04:39:13;;;;;;;4.80;2.80;;;23.30;99.90;;;;;;4995238;28;20092;-77
2022/06/29 04:41:39;;;;;;;7.85;3.20;;;23.20;99.90;;;;;;5012935;28;20152;-77
2022/06/29 04:44:04;;;;;;;5.05;2.28;;;23.20;99.90;;;;;;5012774;28;20099;-77
2022/06/29 04:46:31;;;;;;;6.57;3.22;;;23.20;99.90;;;;;;5012605;28;20109;-77
2022/06/29 04:49:01;;;;;;;6.97;3.33;;;23.10;99.90;;;;;;4995077;28;20080;-77
2022/06/29 04:51:29;;;;;;;7.47;3.05;;;23.00;99.90;;;;;;5012839;28;20033;-77
2022/06/29 04:53:55;;;;;;;8.40;2.35;;;23.00;99.90;;;;;;4995267;28;20022;-78
2022/06/29 04:56:23;;;;;;;5.85;3.08;;;23.00;99.90;;;;;;4994996;28;20022;-78
2022/06/29 04:58:51;;;;;;;5.50;2.58;;;23.00;99.90;;;;;;5012719;28;20544;-78
2022/06/29 05:01:18;;;;;;;7.95;2.30;;;23.00;99.90;;;;;;5013945;28;20025;-78
2022/06/29 05:03:44;;;;;;;6.30;2.40;;;23.00;99.90;;;;;;4998718;28;20112;-78
2022/06/29 05:06:10;;;;;;;4.22;2.30;;;23.00;99.90;;;;;;5016443;28;20064;-77
2022/06/29 05:08:36;;;;;;;5.28;2.50;;;23.00;99.90;;;;;;4998711;28;20022;-77
2022/06/29 05:11:02;;;;;;;5.85;2.47;;;23.00;99.90;;;;;;5016104;28;20026;-78
2022/06/29 05:13:27;;;;;;;10.18;2.13;;;23.00;99.90;;;;;;5016361;28;20471;-77
2022/06/29 05:15:53;;;;;;;4.20;2.60;;;23.10;99.90;;;;;;5016246;28;20022;-78
2022/06/29 05:18:19;;;;;;;4.38;2.58;;;23.20;99.90;;;;;;4998722;28;20018;-77
2022/06/29 05:20:45;;;;;;;6.55;2.50;;;23.20;99.90;;;;;;5016133;28;20026;-78
2022/06/29 05:23:11;;;;;;;7.38;2.70;;;23.20;99.90;;;;;;4998648;28;20076;-78
2022/06/29 05:25:39;;;;;;;7.60;2.53;;;23.20;99.90;;;;;;4998646;28;20099;-77
2022/06/29 05:28:05;;;;;;;6.90;2.42;;;23.30;99.90;;;;;;4998450;28;20026;-77
2022/06/29 05:30:31;;;;;;;3.42;2.15;;;23.30;99.90;;;;;;4998094;28;20127;-77
2022/06/29 05:32:57;;;;;;;4.03;2.20;;;23.40;99.90;;;;;;5015710;28;20049;-77
2022/06/29 05:35:23;;;;;;;2.55;2.35;;;23.40;99.90;;;;;;4997889;28;20022;-77
2022/06/29 05:37:48;;;;;;;8.48;2.75;;;23.50;99.90;;;;;;5015828;28;20021;-78
2022/06/29 05:40:14;;;;;;;3.20;1.92;;;23.50;99.90;;;;;;4998031;28;20034;-77
2022/06/29 05:42:40;;;;;;;6.55;2.33;;;23.50;99.90;;;;;;4998066;28;20013;-78
2022/06/29 05:45:06;;;;;;;7.28;2.75;;;23.60;99.90;;;;;;4998185;28;20030;-77
2022/06/29 05:47:32;;;;;;;7.30;2.22;;;23.60;99.90;;;;;;5015741;28;20054;-77
2022/06/29 05:50:00;;;;;;;3.90;2.53;;;23.70;99.90;;;;;;4997743;28;20389;-77
2022/06/29 05:52:29;;;;;;;5.72;2.20;;;23.80;99.90;;;;;;5015423;28;20018;-77
2022/06/29 05:54:55;;;;;;;9.00;2.15;;;23.90;99.90;;;;;;4997869;28;20555;-77
2022/06/29 05:57:20;;;;;;;3.70;1.95;;;24.00;99.90;;;;;;4997946;28;20101;-77
2022/06/29 05:59:47;;;;;;;5.60;2.53;;;24.10;99.90;;;;;;5015392;28;20032;-77
2022/06/29 06:02:13;;;;;;;8.27;2.28;;;24.30;99.90;;;;;;5015098;28;20109;-77
2022/06/29 06:04:39;;;;;;;5.68;2.45;;;24.40;99.90;;;;;;5015297;28;20022;-76
2022/06/29 06:07:05;;;;;;;6.00;1.90;;;24.50;99.90;;;;;;5015288;28;20018;-77
2022/06/29 06:09:32;;;;;;;3.22;2.05;;;24.70;99.90;;;;;;5014980;28;20079;-77
2022/06/29 06:11:58;;;;;;;6.57;2.17;;;24.80;99.90;;;;;;4996914;28;20030;-76
2022/06/29 06:14:24;;;;;;;5.63;2.60;;;24.90;99.90;;;;;;5014772;28;20373;-76
2022/06/29 06:16:50;;;;;;;5.63;2.17;;;25.00;99.90;;;;;;5014849;28;20546;-76
2022/06/29 06:19:16;;;;;;;6.95;2.33;;;25.10;99.90;;;;;;5015333;28;20022;-76
2022/06/29 06:21:42;;;;;;;5.05;2.13;;;25.20;99.90;;;;;;5015120;28;20018;-77
2022/06/29 06:24:07;;;;;;;7.25;1.98;;;25.30;99.90;;;;;;5014716;28;20034;-76
2022/06/29 06:26:33;;;;;;;6.55;2.15;;;25.40;99.90;;;;;;5014737;28;20029;-76
2022/06/29 06:29:01;;;;;;;7.15;2.15;;;25.50;99.60;;;;;;5014539;28;20053;-76
2022/06/29 06:31:27;;;;;;;6.15;2.58;;;25.60;99.90;;;;;;5013869;28;20025;-76
2022/06/29 06:33:54;;;;;;;5.55;1.90;;;25.70;98.60;;;;;;5014184;28;20140;-77
2022/06/29 06:36:19;;;;;;;7.30;2.30;;;25.70;98.50;;;;;;4996248;28;20026;-75
2022/06/29 06:38:45;;;;;;;4.35;2.28;;;25.80;98.60;;;;;;5014404;28;20030;-76
2022/06/29 06:41:23;;;;;;;8.43;2.05;;;25.90;98.60;;;;;;5014653;28;20431;-76
2022/06/29 06:43:54;;;;;;;5.85;2.58;;;25.90;97.50;;;;;;5014371;28;20080;-76
2022/06/29 06:46:20;;;;;;;8.90;2.60;;;26.00;97.90;;;;;;5014311;28;20030;-76
2022/06/29 06:48:48;;;;;;;5.88;2.90;;;26.00;98.30;;;;;;5014433;28;20592;-76
2022/06/29 06:51:14;;;;;;;4.75;2.50;;;26.00;97.60;;;;;;5014441;28;20017;-75
2022/06/29 06:53:40;;;;;;;9.98;4.00;;;26.00;99.90;;;;;;5014236;28;20025;-76
2022/06/29 06:56:06;;;;;;;7.35;2.80;;;26.10;99.90;;;;;;5014163;28;20112;-76
2022/06/29 06:58:35;;;;;;;7.82;2.53;;;26.10;99.90;;;;;;4996371;28;20018;-76
2022/06/29 07:01:05;;;;;;;6.88;2.40;;;26.20;99.90;;;;;;4994428;28;20026;-75
2022/06/29 07:03:31;;;;;;;5.53;2.70;;;26.30;99.90;;;;;;5014016;28;20076;-75
2022/06/29 07:05:59;;;;;;;7.68;2.88;;;26.40;99.90;;;;;;4995772;28;20125;-76
2022/06/29 07:08:25;;;;;;;4.45;2.70;;;26.50;99.90;;;;;;5010615;28;20032;-76
2022/06/29 07:10:50;;;;;;;8.18;3.35;;;26.50;99.90;;;;;;5033294;28;20116;-75
2022/06/29 07:13:16;;;;;;;6.70;2.53;;;26.60;99.90;;;;;;5015401;28;20025;-76
2022/06/29 07:15:42;;;;;;;5.80;2.70;;;26.60;99.90;;;;;;5032102;28;20036;-76
2022/06/29 07:18:08;;;;;;;8.20;2.88;;;26.50;99.90;;;;;;5031440;28;20014;-76
2022/06/29 07:20:33;;;;;;;4.75;2.83;;;26.60;99.90;;;;;;5032000;28;20261;-77
2022/06/29 07:22:59;;;;;;;10.30;2.30;;;26.60;99.90;;;;;;5031790;28;20052;-77
2022/06/29 07:25:25;;;;;;;4.45;2.78;;;26.60;99.90;;;;;;5031590;28;20029;-77
2022/06/29 07:27:51;;;;;;;9.63;3.28;;;26.60;99.90;;;;;;5032062;28;20550;-77
2022/06/29 07:30:16;;;;;;;8.45;2.67;;;26.60;99.90;;;;;;5014136;28;20046;-77
2022/06/29 07:32:42;;;;;;;8.10;2.80;;;26.50;99.90;;;;;;5031927;28;20387;-77
2022/06/29 07:35:08;;;;;;;8.13;3.05;;;26.40;99.90;;;;;;5013988;28;20119;-77
2022/06/29 07:37:33;;;;;;;10.40;2.70;;;26.40;99.90;;;;;;5031976;28;20104;-76
2022/06/29 07:40:00;;;;;;;11.25;3.13;;;26.30;99.90;;;;;;5014111;28;20080;-77
2022/06/29 07:42:26;;;;;;;4.13;2.47;;;26.20;99.90;;;;;;5031803;28;20022;-77
2022/06/29 07:44:51;;;;;;;7.03;2.75;;;26.20;99.90;;;;;;5031786;28;20036;-77
2022/06/29 07:47:17;;;;;;;5.38;2.47;;;26.20;99.90;;;;;;5031583;28;20391;-77
2022/06/29 07:49:43;;;;;;;6.82;3.15;;;26.20;99.90;;;;;;5013921;28;20563;-77
2022/06/29 07:52:09;;;;;;;5.55;2.47;;;26.20;99.90;;;;;;5031867;28;20025;-77
2022/06/29 07:54:34;;;;;;;8.02;2.67;;;26.10;99.90;;;;;;5031536;28;20021;-77
2022/06/29 07:57:00;;;;;;;5.55;2.50;;;26.10;99.90;;;;;;5031695;28;20113;-77
2022/06/29 07:59:26;;;;;;;7.15;2.92;;;26.20;99.90;;;;;;5013893;28;20029;-77
2022/06/29 08:01:51;;;;;;;7.50;2.63;;;26.20;99.90;;;;;;5031507;28;20499;-77
2022/06/29 08:04:17;;;;;;;7.78;2.55;;;26.20;99.90;;;;;;5013729;28;20060;-77
2022/06/29 08:06:43;;;;;;;6.55;2.78;;;26.20;99.90;;;;;;5013404;28;20033;-77
2022/06/29 08:09:09;;;;;;;5.70;3.33;;;26.20;99.90;;;;;;4994140;28;20030;-78
2022/06/29 08:11:35;;;;;;;7.22;3.55;;;26.10;99.90;;;;;;5011830;28;20033;-77
2022/06/29 08:14:00;;;;;;;4.35;2.80;;;26.20;99.90;;;;;;5011523;28;20014;-77
2022/06/29 08:16:26;;;;;;;4.38;2.72;;;26.20;99.90;;;;;;4993924;28;20399;-77
2022/06/29 08:18:52;;;;;;;8.55;3.03;;;26.10;99.90;;;;;;5011788;28;20014;-77
2022/06/29 08:21:18;;;;;;;4.60;2.72;;;26.20;99.90;;;;;;5011571;28;20160;-77
2022/06/29 08:23:43;;;;;;;3.80;3.10;;;26.20;99.90;;;;;;4993928;28;20022;-77
2022/06/29 08:26:09;;;;;;;5.68;2.53;;;26.20;99.90;;;;;;5011849;28;20539;-77
2022/06/29 08:28:35;;;;;;;13.32;3.08;;;26.20;99.90;;;;;;5011516;28;20169;-77
2022/06/29 08:31:00;;;;;;;4.50;3.38;;;26.30;99.90;;;;;;4993656;28;20088;-77
2022/06/29 08:33:26;;;;;;;7.93;2.63;;;26.30;99.90;;;;;;5011685;28;20022;-76
2022/06/29 08:35:52;;;;;;;5.78;3.28;;;26.20;99.90;;;;;;5013843;28;20495;-77
2022/06/29 08:38:17;;;;;;;8.20;3.55;;;26.20;99.90;;;;;;5028841;28;20029;-78
2022/06/29 08:40:45;;;;;;;7.25;3.58;;;26.10;99.90;;;;;;5030826;28;20029;-77
2022/06/29 08:43:12;;;;;;;6.80;3.90;;;26.10;99.90;;;;;;5013057;28;20084;-77
2022/06/29 08:45:43;;;;;;;5.88;4.00;;;26.00;99.90;;;;;;5015280;28;20025;-77
2022/06/29 08:48:12;;;;;;;8.02;3.78;;;25.90;99.90;;;;;;5015243;28;20054;-77
2022/06/29 08:50:41;;;;;;;6.57;3.40;;;26.00;99.90;;;;;;4997455;28;20030;-77
2022/06/29 08:53:08;;;;;;;8.48;3.80;;;26.00;99.90;;;;;;4997668;28;20044;-77
2022/06/29 08:55:40;;;;;;;4.82;3.58;;;26.00;99.90;;;;;;5014352;28;20014;-77
2022/06/29 08:58:07;;;;;;;8.32;3.45;;;26.00;99.90;;;;;;5013515;28;20022;-77
2022/06/29 09:00:36;;;;;;;6.22;3.17;;;26.00;99.90;;;;;;5015036;28;20075;-77
2022/06/29 09:03:04;;;;;;;6.18;3.60;;;26.10;99.90;;;;;;5014918;28;20105;-77
2022/06/29 09:05:31;;;;;;;4.80;3.38;;;26.20;99.90;;;;;;5014988;28;20026;-77
2022/06/29 09:07:56;;;;;;;4.57;3.17;;;26.20;99.90;;;;;;5025510;28;20029;-77
2022/06/29 09:10:23;;;;;;;7.88;3.58;;;26.20;99.90;;;;;;5034523;28;20509;-77
2022/06/29 09:12:52;;;;;;;6.70;4.70;;;26.30;99.90;;;;;;5033290;28;20025;-77
2022/06/29 09:15:31;;;;;;;7.20;4.13;;;26.30;99.90;;;;;;5034452;28;20010;-77
2022/06/29 09:17:56;;;;;;;7.63;4.50;;;26.40;99.90;;;;;;5034349;28;20022;-77
2022/06/29 09:20:22;;;;;;;4.85;4.20;;;26.40;99.90;;;;;;5033188;28;20052;-77
2022/06/29 09:22:56;;;;;;;9.13;4.50;;;26.40;99.90;;;;;;5016724;28;20186;-77
2022/06/29 09:25:31;;;;;;;8.88;4.20;;;26.40;99.90;;;;;;5034356;28;20030;-77
2022/06/29 09:27:57;;;;;;;11.18;4.38;;;26.50;99.90;;;;;;5034189;28;20017;-77
2022/06/29 09:30:38;;;;;;;6.07;4.28;;;26.50;99.90;;;;;;5034065;28;20041;-77
2022/06/29 09:33:06;;;;;;;9.85;4.43;;;26.60;99.90;;;;;;5034154;28;20022;-77
2022/06/29 09:35:33;;;;;;;10.38;4.72;;;26.60;99.90;;;;;;5034204;28;20025;-76
2022/06/29 09:38:24;;;;;;;10.55;5.35;;;26.60;99.90;;;;;;5016343;28;20049;-77
2022/06/29 09:41:14;;;;;;;5.85;4.00;;;26.60;99.90;;;;;;5034046;28;20030;-77
2022/06/29 09:43:46;;;;;;;6.05;3.72;;;26.70;99.90;;;;;;5033999;28;20432;-77
2022/06/29 09:46:16;;;;;;;9.38;4.75;;;26.70;99.90;;;;;;5015867;28;20037;-77
2022/06/29 09:48:43;;;;;;;8.50;3.33;;;26.80;99.90;;;;;;5033777;28;20025;-77
2022/06/29 09:54:04;;;;;;;10.02;4.18;;;26.80;99.90;;;;;;5034150;28;20052;-77
2022/06/29 09:56:31;;;;;;;6.15;4.00;;;26.80;99.10;;;;;;5016104;28;20025;-77
2022/06/29 09:58:58;;;;;;;5.90;4.15;;;26.70;98.80;;;;;;5016131;28;20182;-77
2022/06/29 10:04:10;;;;;;;6.22;3.72;;;26.70;99.90;;;;;;5033982;28;20053;-77
2022/06/29 10:06:36;;;;;;;5.78;4.10;;;26.70;99.40;;;;;;5033788;28;20037;-76
2022/06/29 10:09:03;;;;;;;13.93;4.75;;;26.70;99.90;;;;;;5033537;28;20123;-77
2022/06/29 10:14:31;;;;;;;6.80;4.15;;;26.70;99.90;;;;;;5033478;28;20040;-77
2022/06/29 10:17:11;;;;;;;6.50;4.22;;;26.60;99.90;;;;;;5033656;28;20029;-77
2022/06/29 10:20:07;;;;;;;6.28;4.18;;;26.60;99.90;;;;;;5033460;28;20013;-77
2022/06/29 10:22:32;;;;;;;7.05;4.20;;;26.60;99.90;;;;;;5022404;28;20037;-77
2022/06/29 10:25:06;;;;;;;7.70;3.83;;;26.60;99.90;;;;;;5015658;28;20044;-77
2022/06/29 10:27:32;;;;;;;6.63;4.45;;;26.70;99.90;;;;;;5015602;28;20049;-77
2022/06/29 10:30:28;;;;;;;9.70;4.68;;;26.60;99.90;;;;;;5033046;28;20038;-77
2022/06/29 10:33:28;;;;;;;5.13;4.13;;;26.60;99.90;;;;;;5014733;28;20017;-77
2022/06/29 10:36:05;;;;;;;7.35;4.53;;;26.60;99.90;;;;;;4976197;28;20117;-77
2022/06/29 10:38:35;;;;;;;9.02;4.28;;;26.70;99.90;;;;;;5008998;28;20025;-77
2022/06/29 10:41:10;;;;;;;6.30;4.38;;;26.80;99.90;;;;;;5013212;28;20113;-77
2022/06/29 10:43:38;;;;;;;8.70;4.70;;;26.90;99.90;;;;;;5013299;28;20032;-76
2022/06/29 10:46:04;;;;;;;5.70;4.47;;;27.10;99.90;;;;;;5013392;28;20092;-77
2022/06/29 10:48:31;;;;;;;9.93;4.50;;;27.40;99.90;;;;;;5013018;28;20503;-77
2022/06/29 10:50:58;;;;;;;9.60;4.45;;;27.60;98.30;;;;;;4995580;28;20029;-76
2022/06/29 10:53:24;;;;;;;9.50;5.75;;;27.80;97.90;;;;;;5010013;28;20057;-76
2022/06/29 10:55:55;;;;;;;4.65;4.18;;;28.00;96.40;;;;;;5012943;28;20552;-76
2022/06/29 10:58:21;;;;;;;7.07;4.10;;;28.20;96.70;;;;;;4995401;28;20030;-76
2022/06/29 11:00:53;;;;;;;8.20;4.63;;;28.30;95.30;;;;;;5012978;28;20041;-76
2022/06/29 11:03:22;;;;;;;6.45;3.75;;;28.30;95.50;;;;;;5012736;28;20026;-76
2022/06/29 11:15:39;;;;;;;8.15;4.32;;;28.80;94.70;;;;;;5032806;28;20036;-75
2022/06/29 11:16:55;;;;;;;7.22;3.35;;;28.70;94.80;;;;;;5032485;28;20038;-76
2022/06/29 11:19:31;;;;;;;5.13;3.67;;;28.90;94.80;;;;;;5032296;28;20017;-76
2022/06/29 11:22:15;;;;;;;5.90;3.40;;;29.10;95.10;;;;;;5032199;28;20124;-76
2022/06/29 11:24:54;;;;;;;11.18;4.35;;;29.20;94.60;;;;;;5032250;28;20029;-76
2022/06/29 11:27:37;;;;;;;6.88;3.28;;;29.20;93.00;;;;;;5032148;28;20033;-76
2022/06/29 11:30:08;;;;;;;6.03;3.42;;;29.20;92.90;;;;;;5032076;28;20048;-76
2022/06/29 11:32:41;;;;;;;3.80;3.50;;;29.30;94.40;;;;;;5032168;28;20057;-76
2022/06/29 11:35:08;;;;;;;9.90;3.95;;;29.30;93.90;;;;;;5032099;28;20021;-76
2022/06/29 11:37:34;;;;;;;9.43;4.20;;;29.50;94.50;;;;;;5014482;28;20140;-76
2022/06/29 11:40:00;;;;;;;9.63;3.85;;;29.70;94.20;;;;;;5031958;28;20100;-76
2022/06/29 11:45:19;;;;;;;7.55;3.60;;;29.80;92.80;;;;;;5031409;28;20037;-76
2022/06/29 11:47:55;;;;;;;6.50;4.03;;;29.90;93.20;;;;;;5032077;28;20026;-76
2022/06/29 11:50:22;;;;;;;7.38;3.60;;;29.80;92.90;;;;;;5031587;28;20066;-76
2022/06/29 11:52:51;;;;;;;4.57;3.00;;;29.90;93.40;;;;;;5031940;28;20036;-76
2022/06/29 11:55:43;;;;;;;5.68;3.85;;;30.10;94.00;;;;;;5014034;28;20549;-76
2022/06/29 11:58:11;;;;;;;3.22;2.92;;;30.30;93.50;;;;;;5031726;28;20045;-76
2022/06/29 12:00:39;;;;;;;11.82;3.53;;;30.50;93.30;;;;;;5031698;28;20029;-76
2022/06/29 12:03:06;;;;;;;9.23;2.92;;;30.60;91.40;;;;;;5031683;28;20029;-76
2022/06/29 12:05:32;;;;;;;7.57;2.75;;;30.60;90.00;;;;;;5031557;28;20103;-76
2022/06/29 12:07:58;;;;;;;6.40;3.03;;;30.70;89.50;;;;;;5020742;28;20057;-76
2022/06/29 12:10:23;;;;;;;9.23;3.22;;;30.80;89.50;;;;;;4993970;28;20474;-76
2022/06/29 12:12:49;;;;;;;5.28;3.00;;;30.90;88.70;;;;;;5011963;28;20032;-76
2022/06/29 12:15:16;;;;;;;11.43;3.70;;;31.10;89.60;;;;;;5011930;28;20145;-76
2022/06/29 12:17:43;;;;;;;6.18;2.95;;;31.10;87.60;;;;;;4994385;28;20406;-76
2022/06/29 12:20:09;;;;;;;7.22;3.67;;;31.20;88.10;;;;;;5011680;28;20022;-75
2022/06/29 12:22:36;;;;;;;10.38;3.38;;;31.20;87.50;;;;;;5011717;28;20022;-75
2022/06/29 12:25:01;;;;;;;5.05;2.63;;;31.40;87.30;;;;;;5011700;28;20026;-75
2022/06/29 12:27:27;;;;;;;8.05;2.90;;;31.50;86.10;;;;;;4994059;28;20034;-75
2022/06/29 12:29:53;;;;;;;10.98;2.55;;;31.50;83.70;;;;;;4993978;28;20042;-76
2022/06/29 12:32:19;;;;;;;5.65;3.00;;;31.50;82.30;;;;;;5011765;28;20446;-75
2022/06/29 12:34:44;;;;;;;7.70;3.47;;;31.70;82.30;;;;;;4993963;28;20018;-75
2022/06/29 12:37:10;;;;;;;4.97;2.78;;;31.80;82.20;;;;;;5015785;28;20483;-75
2022/06/29 12:39:36;;;;;;;6.93;2.90;;;32.00;81.80;;;;;;5013207;28;20025;-75
2022/06/29 12:42:03;;;;;;;5.97;2.78;;;32.10;81.90;;;;;;4993998;28;20034;-76
2022/06/29 12:44:29;;;;;;;7.65;2.83;;;32.20;78.60;;;;;;5011571;28;20484;-75
2022/06/29 12:46:54;;;;;;;13.13;3.45;;;32.30;80.40;;;;;;5011926;28;20112;-75
2022/06/29 12:49:21;;;;;;;9.55;3.55;;;32.40;79.60;;;;;;5010481;28;20033;-75
2022/06/29 12:51:46;;;;;;;6.15;3.20;;;32.40;79.30;;;;;;4995040;28;20029;-76
2022/06/29 12:54:12;;;;;;;9.73;2.78;;;32.60;77.60;;;;;;5012526;28;20030;-76
2022/06/29 12:56:39;;;;;;;6.15;2.75;;;32.70;76.10;;;;;;5012627;28;20054;-76
2022/06/29 12:59:04;;;;;;;11.15;3.25;;;32.80;76.90;;;;;;5012442;28;20508;-75
2022/06/29 13:01:30;;;;;;;6.85;3.20;;;33.00;76.70;;;;;;4994953;28;20030;-76
2022/06/29 13:03:56;;;;;;;9.95;3.47;;;33.20;77.30;;;;;;5012562;28;20018;-76
2022/06/29 13:06:22;;;;;;;9.10;3.10;;;33.40;77.50;;;;;;5012765;28;20030;-76
2022/06/29 13:08:48;;;;;;;7.68;2.70;;;33.50;73.70;;;;;;5030264;28;20033;-75